Time;durP1;ratioP1;P1;durP2;ratioP2;P2;SDS_P1;SDS_P2;PMS_P1;PMS_P2;Temp;Humidity;BMP_temperature;BMP_pressure;BME280_temperature;BME280_humidity;BME280_pressure;Samples;Min_cycle;Max_cycle;Signal;HPM_P1;HPM_P2
2022/05/10 00:00:03;;;;;;;7.47;2.83;;;;;;;;;;5071523;28;20028;-56
2022/05/10 00:02:30;;;;;;;9.07;2.65;;;;;;;;;;5070096;28;20425;-55
2022/05/10 00:04:56;;;;;;;7.10;2.90;;;;;;;;;;5070638;28;20103;-57
2022/05/10 00:07:23;;;;;;;6.50;3.03;;;;;;;;;;5070412;28;20099;-57
2022/05/10 00:09:49;;;;;;;6.45;3.13;;;;;;;;;;5070706;28;20075;-56
2022/05/10 00:12:15;;;;;;;6.75;2.70;;;;;;;;;;5070959;28;20115;-56
2022/05/10 00:14:42;;;;;;;5.57;2.80;;;;;;;;;;5071074;28;20139;-57
2022/05/10 00:17:09;;;;;;;6.82;2.85;;;;;;;;;;5070378;28;20028;-55
2022/05/10 00:19:35;;;;;;;5.93;2.40;;;;;;;;;;5069979;28;20487;-56
2022/05/10 00:22:01;;;;;;;7.40;2.90;;;;;;;;;;5070386;28;20027;-57
2022/05/10 00:24:27;;;;;;;5.22;2.25;;;;;;;;;;5070396;28;20028;-55
2022/05/10 00:26:55;;;;;;;6.72;3.05;;;;;;;;;;5071117;28;20119;-56
2022/05/10 00:29:21;;;;;;;6.18;3.22;;;;;;;;;;5069965;28;20043;-56
2022/05/10 00:31:47;;;;;;;6.70;2.83;;;;;;;;;;5070378;28;20566;-55
2022/05/10 00:34:15;;;;;;;6.72;2.72;;;;;;;;;;5069130;28;20423;-56
2022/05/10 00:36:41;;;;;;;5.85;2.70;;;;;;;;;;5070350;28;20634;-54
2022/05/10 00:39:07;;;;;;;8.38;2.60;;;;;;;;;;5070150;28;20040;-57
2022/05/10 00:41:38;;;;;;;5.75;2.67;;;;;;;;;;5069964;28;20029;-56
2022/05/10 00:44:06;;;;;;;7.47;3.05;;;;;;;;;;5070136;28;20442;-56
2022/05/10 00:46:36;;;;;;;8.57;3.10;;;;;;;;;;5070233;28;20115;-57
2022/05/10 00:49:08;;;;;;;7.50;2.83;;;;;;;;;;5064660;28;20151;-56
2022/05/10 00:51:37;;;;;;;7.85;3.40;;;;;;;;;;5070155;28;20064;-56
2022/05/10 00:54:09;;;;;;;6.82;3.00;;;;;;;;;;5070031;28;20040;-57
2022/05/10 00:56:40;;;;;;;5.85;2.83;;;;;;;;;;5069451;28;20098;-57
2022/05/10 00:59:16;;;;;;;6.72;3.95;;;;;;;;;;5070621;28;20060;-56
2022/05/10 01:01:45;;;;;;;7.60;2.95;;;;;;;;;;5069387;28;20525;-56
2022/05/10 01:04:19;;;;;;;7.10;2.77;;;;;;;;;;5070783;28;20070;-56
2022/05/10 01:06:49;;;;;;;5.00;2.50;;;;;;;;;;5070448;28;20111;-54
2022/05/10 01:09:31;;;;;;;6.75;2.50;;;;;;;;;;5050536;28;20136;-57
2022/05/10 01:12:02;;;;;;;6.72;2.83;;;;;;;;;;5066853;28;20028;-56
2022/05/10 01:14:47;;;;;;;7.88;3.03;;;;;;;;;;5070340;28;20071;-56
2022/05/10 01:17:13;;;;;;;8.23;2.70;;;;;;;;;;5069548;28;20033;-55
2022/05/10 01:19:40;;;;;;;4.47;2.90;;;;;;;;;;5070163;28;20115;-55
2022/05/10 01:22:06;;;;;;;6.93;3.35;;;;;;;;;;5070162;28;20155;-56
2022/05/10 01:24:51;;;;;;;5.00;2.65;;;;;;;;;;5070277;28;20394;-56
2022/05/10 01:27:36;;;;;;;9.27;3.28;;;;;;;;;;5069800;28;20025;-55
2022/05/10 01:30:05;;;;;;;5.57;2.95;;;;;;;;;;5049854;28;20094;-56
2022/05/10 01:35:25;;;;;;;8.02;2.75;;;;;;;;;;5070104;28;20457;-54
2022/05/10 01:37:54;;;;;;;5.80;2.80;;;;;;;;;;5068855;28;20044;-52
2022/05/10 01:40:41;;;;;;;5.03;2.50;;;;;;;;;;5069849;28;20056;-56
2022/05/10 01:43:10;;;;;;;8.82;3.47;;;;;;;;;;5069501;28;20020;-56
2022/05/10 01:45:36;;;;;;;6.05;2.65;;;;;;;;;;5070287;28;20068;-56
2022/05/10 01:48:04;;;;;;;6.45;2.90;;;;;;;;;;5069312;28;20039;-54
2022/05/10 01:50:40;;;;;;;5.70;3.10;;;;;;;;;;5069235;28;20121;-53
2022/05/10 01:53:18;;;;;;;6.65;3.25;;;;;;;;;;5069180;28;20024;-55
2022/05/10 01:55:46;;;;;;;7.22;3.05;;;;;;;;;;5049201;28;20028;-57
2022/05/10 01:58:14;;;;;;;6.05;3.08;;;;;;;;;;5063427;28;20032;-56
2022/05/10 02:00:41;;;;;;;7.88;3.30;;;;;;;;;;5068197;28;20115;-56
2022/05/10 02:03:14;;;;;;;7.13;3.10;;;;;;;;;;5068732;28;20078;-55
2022/05/10 02:05:40;;;;;;;7.03;2.83;;;;;;;;;;5068886;28;20113;-56
2022/05/10 02:08:10;;;;;;;6.45;2.72;;;;;;;;;;5067700;28;20044;-56
2022/05/10 02:10:39;;;;;;;6.47;3.00;;;;;;;;;;5068575;28;20029;-56
2022/05/10 02:13:14;;;;;;;7.03;3.53;;;;;;;;;;5067513;28;20025;-57
2022/05/10 02:15:43;;;;;;;6.45;3.20;;;;;;;;;;5068055;28;20021;-56
2022/05/10 02:18:15;;;;;;;6.75;3.15;;;;;;;;;;5068290;28;20144;-56
2022/05/10 02:20:50;;;;;;;6.70;3.33;;;;;;;;;;5068139;28;20055;-53
2022/05/10 02:23:28;;;;;;;5.25;2.72;;;;;;;;;;5067357;28;20031;-56
2022/05/10 02:26:01;;;;;;;6.13;3.30;;;;;;;;;;5068235;28;20036;-54
2022/05/10 02:28:30;;;;;;;7.43;3.40;;;;;;;;;;5067511;28;20063;-56
2022/05/10 02:30:59;;;;;;;6.68;3.00;;;;;;;;;;5067184;28;20066;-56
2022/05/10 02:33:25;;;;;;;6.25;3.33;;;;;;;;;;5067645;28;20025;-56
2022/05/10 02:35:58;;;;;;;5.82;3.25;;;;;;;;;;5067455;28;20024;-57
2022/05/10 02:38:26;;;;;;;6.10;3.00;;;;;;;;;;5066979;28;20032;-56
2022/05/10 02:40:54;;;;;;;5.40;2.83;;;;;;;;;;5067154;28;20043;-54
2022/05/10 02:43:23;;;;;;;7.18;3.50;;;;;;;;;;5067701;28;20032;-55
2022/05/10 02:45:50;;;;;;;6.20;3.25;;;;;;;;;;5067808;28;20098;-55
2022/05/10 02:48:28;;;;;;;6.22;3.20;;;;;;;;;;5068113;28;20096;-56
2022/05/10 02:50:54;;;;;;;7.70;3.10;;;;;;;;;;5064609;28;20120;-54
2022/05/10 02:53:20;;;;;;;6.50;3.20;;;;;;;;;;5067983;28;20103;-55
2022/05/10 02:55:56;;;;;;;6.38;3.03;;;;;;;;;;5065608;28;20077;-54
2022/05/10 02:58:43;;;;;;;7.53;3.40;;;;;;;;;;5068108;28;20040;-54
2022/05/10 03:01:28;;;;;;;7.63;3.10;;;;;;;;;;5067112;28;20025;-57
2022/05/10 03:03:54;;;;;;;7.10;3.38;;;;;;;;;;5068098;28;20044;-56
2022/05/10 03:06:22;;;;;;;5.05;2.92;;;;;;;;;;5067580;28;20036;-56
2022/05/10 03:08:48;;;;;;;5.90;3.08;;;;;;;;;;5067845;28;20143;-56
2022/05/10 03:11:14;;;;;;;8.55;3.90;;;;;;;;;;5066892;28;20111;-55
2022/05/10 03:13:41;;;;;;;6.20;3.58;;;;;;;;;;5068083;28;20112;-56
2022/05/10 03:16:07;;;;;;;7.65;3.53;;;;;;;;;;5067038;28;20116;-55
2022/05/10 03:18:33;;;;;;;6.18;3.70;;;;;;;;;;5067141;28;20051;-56
2022/05/10 03:20:59;;;;;;;6.57;3.40;;;;;;;;;;5067702;28;20475;-55
2022/05/10 03:23:27;;;;;;;7.13;3.38;;;;;;;;;;5067699;28;20107;-56
2022/05/10 03:25:54;;;;;;;6.32;3.55;;;;;;;;;;5071064;28;20040;-56
2022/05/10 03:28:20;;;;;;;7.10;3.55;;;;;;;;;;5071674;28;20405;-55
2022/05/10 03:30:46;;;;;;;5.15;3.47;;;;;;;;;;5070435;28;20024;-54
2022/05/10 03:33:12;;;;;;;6.50;3.85;;;;;;;;;;5071533;28;20056;-54
2022/05/10 03:35:39;;;;;;;5.68;3.50;;;;;;;;;;5071775;28;20028;-55
2022/05/10 03:38:05;;;;;;;5.90;3.40;;;;;;;;;;5071729;28;20727;-55
2022/05/10 03:40:31;;;;;;;6.95;3.50;;;;;;;;;;5071327;28;20020;-55
2022/05/10 03:42:57;;;;;;;5.85;3.45;;;;;;;;;;5071374;28;20017;-53
2022/05/10 03:45:24;;;;;;;5.57;3.58;;;;;;;;;;5071076;28;20112;-54
2022/05/10 03:47:50;;;;;;;7.00;3.88;;;;;;;;;;5071197;28;20040;-56
2022/05/10 03:50:19;;;;;;;5.75;3.25;;;;;;;;;;5071364;28;20031;-55
2022/05/10 03:52:46;;;;;;;8.32;4.05;;;;;;;;;;5070350;28;20032;-56
2022/05/10 03:55:13;;;;;;;5.30;3.47;;;;;;;;;;5070985;28;20471;-55
2022/05/10 03:57:39;;;;;;;6.80;3.33;;;;;;;;;;5071213;28;20055;-54
2022/05/10 04:00:08;;;;;;;5.93;3.60;;;;;;;;;;5070743;28;20173;-55
2022/05/10 04:02:34;;;;;;;6.70;3.60;;;;;;;;;;5070446;28;20032;-50
2022/05/10 04:05:00;;;;;;;7.10;3.78;;;;;;;;;;5070761;28;20037;-56
2022/05/10 04:07:26;;;;;;;9.30;4.40;;;;;;;;;;5070385;28;20024;-53
2022/05/10 04:09:52;;;;;;;5.85;3.33;;;;;;;;;;5070876;28;20128;-55
2022/05/10 04:12:18;;;;;;;8.52;3.92;;;;;;;;;;5070685;28;20117;-57
2022/05/10 04:14:44;;;;;;;6.88;3.85;;;;;;;;;;5071501;28;20376;-54
2022/05/10 04:17:10;;;;;;;6.30;3.63;;;;;;;;;;5070509;28;20031;-58
2022/05/10 04:19:36;;;;;;;6.10;3.63;;;;;;;;;;5071110;28;20390;-56
2022/05/10 04:22:03;;;;;;;7.43;3.65;;;;;;;;;;5071002;28;20017;-55
2022/05/10 04:24:29;;;;;;;6.82;3.80;;;;;;;;;;5070488;28;20029;-56
2022/05/10 04:26:55;;;;;;;5.97;3.55;;;;;;;;;;5070513;28;20028;-55
2022/05/10 04:29:21;;;;;;;7.55;4.10;;;;;;;;;;5070733;28;20041;-56
2022/05/10 04:31:47;;;;;;;6.55;3.65;;;;;;;;;;5069734;28;20029;-54
2022/05/10 04:34:13;;;;;;;8.25;3.80;;;;;;;;;;5070447;28;20032;-56
2022/05/10 04:36:39;;;;;;;7.30;4.35;;;;;;;;;;5069469;28;20078;-56
2022/05/10 04:39:05;;;;;;;7.10;4.43;;;;;;;;;;5070537;28;20055;-56
2022/05/10 04:41:33;;;;;;;8.13;4.20;;;;;;;;;;5070406;28;20530;-55
2022/05/10 04:44:04;;;;;;;9.30;4.97;;;;;;;;;;5069732;28;20136;-56
2022/05/10 04:46:31;;;;;;;8.50;4.10;;;;;;;;;;5049924;28;20083;-56
2022/05/10 04:48:57;;;;;;;5.25;3.58;;;;;;;;;;5067855;28;20029;-56
2022/05/10 04:51:23;;;;;;;10.60;6.32;;;;;;;;;;5070676;28;20390;-55
2022/05/10 04:53:49;;;;;;;23.33;11.25;;;;;;;;;;5070546;28;20029;-56
2022/05/10 04:56:16;;;;;;;36.20;18.58;;;;;;;;;;5070420;28;20020;-56
2022/05/10 04:58:43;;;;;;;55.25;20.65;;;;;;;;;;5069975;28;20028;-55
2022/05/10 05:01:13;;;;;;;60.72;22.23;;;;;;;;;;5070312;28;20082;-56
2022/05/10 05:03:43;;;;;;;45.85;20.90;;;;;;;;;;5070282;28;20552;-56
2022/05/10 05:06:10;;;;;;;55.67;21.63;;;;;;;;;;5070544;28;20075;-56
2022/05/10 05:08:36;;;;;;;64.80;21.80;;;;;;;;;;5069981;28;20558;-57
2022/05/10 05:11:02;;;;;;;45.20;18.90;;;;;;;;;;5070461;28;20012;-57
2022/05/10 05:13:28;;;;;;;39.95;22.42;;;;;;;;;;5069968;28;20902;-55
2022/05/10 05:15:54;;;;;;;42.10;22.52;;;;;;;;;;5070266;28;20078;-56
2022/05/10 05:18:21;;;;;;;35.05;21.25;;;;;;;;;;5069528;28;20504;-56
2022/05/10 05:20:48;;;;;;;39.10;23.25;;;;;;;;;;5070048;28;20040;-54
2022/05/10 05:23:14;;;;;;;46.63;21.85;;;;;;;;;;5069866;28;20067;-56
2022/05/10 05:25:44;;;;;;;48.47;21.95;;;;;;;;;;5069813;28;20082;-57
2022/05/10 05:28:11;;;;;;;34.60;20.33;;;;;;;;;;5069218;28;20112;-56
2022/05/10 05:30:38;;;;;;;31.48;20.17;;;;;;;;;;5070007;28;20035;-57
2022/05/10 05:33:04;;;;;;;31.38;20.95;;;;;;;;;;5070127;28;20036;-55
2022/05/10 05:35:30;;;;;;;25.90;19.40;;;;;;;;;;5069042;28;20119;-57
2022/05/10 05:37:56;;;;;;;26.27;19.27;;;;;;;;;;5069353;28;20532;-56
2022/05/10 05:40:23;;;;;;;28.17;20.88;;;;;;;;;;5068908;28;20024;-57
2022/05/10 05:42:50;;;;;;;31.27;19.58;;;;;;;;;;5069731;28;20107;-56
2022/05/10 05:45:17;;;;;;;41.90;20.33;;;;;;;;;;5069378;28;20116;-57
2022/05/10 05:47:43;;;;;;;31.70;18.73;;;;;;;;;;5068735;28;20096;-56
2022/05/10 05:50:12;;;;;;;33.38;18.20;;;;;;;;;;5068188;28;20048;-57
2022/05/10 05:52:38;;;;;;;39.25;19.65;;;;;;;;;;5068616;28;20115;-55
2022/05/10 05:55:06;;;;;;;32.47;18.00;;;;;;;;;;5069289;28;20543;-55
2022/05/10 05:57:32;;;;;;;33.33;18.50;;;;;;;;;;5056920;28;20037;-56
2022/05/10 05:59:58;;;;;;;32.17;17.75;;;;;;;;;;5068637;28;20104;-56
2022/05/10 06:02:25;;;;;;;29.90;17.90;;;;;;;;;;5068997;28;20036;-56
2022/05/10 06:04:51;;;;;;;29.45;18.65;;;;;;;;;;5068240;28;20028;-56
2022/05/10 06:07:17;;;;;;;26.15;15.98;;;;;;;;;;5067964;28;20023;-57
2022/05/10 06:09:44;;;;;;;27.05;17.15;;;;;;;;;;5068008;28;20064;-55
2022/05/10 06:12:11;;;;;;;24.15;16.33;;;;;;;;;;5066924;28;20036;-57
2022/05/10 06:14:38;;;;;;;27.75;17.00;;;;;;;;;;5068947;28;20032;-54
2022/05/10 06:17:05;;;;;;;22.30;16.42;;;;;;;;;;5068209;28;20407;-54
2022/05/10 06:19:32;;;;;;;36.40;17.90;;;;;;;;;;5068507;28;20542;-56
2022/05/10 06:21:58;;;;;;;28.73;18.00;;;;;;;;;;5068888;28;20158;-54
2022/05/10 06:24:24;;;;;;;27.02;16.73;;;;;;;;;;5068831;28;20036;-54
2022/05/10 06:26:50;;;;;;;24.83;17.70;;;;;;;;;;5068260;28;20115;-57
2022/05/10 06:29:16;;;;;;;28.33;18.05;;;;;;;;;;5068377;28;20115;-56
2022/05/10 06:31:43;;;;;;;28.25;19.52;;;;;;;;;;5068738;28;20020;-55
2022/05/10 06:34:10;;;;;;;26.00;19.48;;;;;;;;;;5067406;28;20037;-56
2022/05/10 06:36:36;;;;;;;33.40;17.73;;;;;;;;;;5068473;28;20021;-54
2022/05/10 06:39:03;;;;;;;26.50;17.15;;;;;;;;;;5067598;28;20111;-55
2022/05/10 06:41:31;;;;;;;27.40;17.17;;;;;;;;;;5066738;28;20100;-54
2022/05/10 06:43:57;;;;;;;32.40;17.63;;;;;;;;;;5068243;28;20056;-54
2022/05/10 06:46:23;;;;;;;27.85;17.77;;;;;;;;;;5069077;28;20038;-54
2022/05/10 06:48:49;;;;;;;28.73;18.10;;;;;;;;;;5068103;28;20032;-56
2022/05/10 06:51:16;;;;;;;24.02;16.05;;;;;;;;;;5068158;28;20020;-55
2022/05/10 06:53:43;;;;;;;25.77;16.70;;;;;;;;;;5068377;28;20027;-55
2022/05/10 06:56:09;;;;;;;23.70;15.88;;;;;;;;;;5068239;28;20031;-56
2022/05/10 06:58:36;;;;;;;26.33;16.42;;;;;;;;;;5068354;28;20028;-54
2022/05/10 07:01:02;;;;;;;24.90;14.65;;;;;;;;;;5068731;28;20099;-55
2022/05/10 07:03:31;;;;;;;25.92;15.70;;;;;;;;;;5067679;28;20119;-57
2022/05/10 07:05:58;;;;;;;22.58;14.52;;;;;;;;;;5068198;28;20028;-55
2022/05/10 07:08:24;;;;;;;24.83;15.10;;;;;;;;;;5067722;28;20052;-56
2022/05/10 07:10:51;;;;;;;26.15;16.08;;;;;;;;;;5067482;28;20044;-56
2022/05/10 07:13:18;;;;;;;24.08;15.18;;;;;;;;;;5067794;28;20032;-56
2022/05/10 07:15:44;;;;;;;19.90;14.10;;;;;;;;;;5068431;28;20128;-52
2022/05/10 07:18:10;;;;;;;23.00;14.25;;;;;;;;;;5067751;28;20032;-55
2022/05/10 07:20:36;;;;;;;24.83;15.48;;;;;;;;;;5067929;28;20021;-54
2022/05/10 07:23:03;;;;;;;30.90;15.13;;;;;;;;;;5067967;28;20017;-52
2022/05/10 07:25:29;;;;;;;32.35;14.43;;;;;;;;;;5067958;28;20124;-57
2022/05/10 07:27:55;;;;;;;29.35;14.98;;;;;;;;;;5067422;28;20620;-55
2022/05/10 07:30:22;;;;;;;27.05;14.73;;;;;;;;;;5068251;28;20032;-54
2022/05/10 07:32:48;;;;;;;22.00;13.40;;;;;;;;;;5068098;28;20028;-56
2022/05/10 07:35:15;;;;;;;21.42;12.90;;;;;;;;;;5067794;28;20516;-57
2022/05/10 07:37:41;;;;;;;23.95;14.32;;;;;;;;;;5068328;28;20368;-58
2022/05/10 07:40:08;;;;;;;25.98;15.38;;;;;;;;;;5067741;28;20041;-54
2022/05/10 07:42:38;;;;;;;26.17;16.38;;;;;;;;;;5047394;28;20056;-58
2022/05/10 07:45:05;;;;;;;28.27;15.90;;;;;;;;;;5063676;28;20111;-57
2022/05/10 07:47:31;;;;;;;24.15;16.23;;;;;;;;;;5066792;28;20111;-56
2022/05/10 07:49:58;;;;;;;29.50;16.67;;;;;;;;;;5066960;28;20032;-56
2022/05/10 07:52:24;;;;;;;24.23;16.73;;;;;;;;;;5067190;28;20024;-57
2022/05/10 07:54:50;;;;;;;23.23;16.50;;;;;;;;;;5068081;28;20104;-56
2022/05/10 07:57:16;;;;;;;28.95;17.23;;;;;;;;;;5078151;28;20166;-57
2022/05/10 07:59:42;;;;;;;25.63;17.60;;;;;;;;;;5065073;28;20352;-54
2022/05/10 08:02:08;;;;;;;21.55;17.08;;;;;;;;;;5060086;28;20441;-56
2022/05/10 08:04:34;;;;;;;29.10;15.77;;;;;;;;;;5061163;28;20466;-57
2022/05/10 08:07:01;;;;;;;26.05;15.90;;;;;;;;;;5060239;28;20024;-57
2022/05/10 08:09:27;;;;;;;22.25;15.38;;;;;;;;;;5060047;28;20056;-57
2022/05/10 08:11:53;;;;;;;24.63;15.90;;;;;;;;;;5062998;28;20028;-56
2022/05/10 08:14:19;;;;;;;23.05;15.13;;;;;;;;;;5064543;28;20063;-57
2022/05/10 08:16:46;;;;;;;20.85;15.30;;;;;;;;;;5063361;28;20021;-57
2022/05/10 08:19:12;;;;;;;21.90;15.25;;;;;;;;;;5063446;28;20027;-55
2022/05/10 08:21:38;;;;;;;21.08;14.43;;;;;;;;;;5063275;28;20037;-55
2022/05/10 08:24:05;;;;;;;19.95;16.20;;;;;;;;;;5060754;28;20029;-56
2022/05/10 08:26:31;;;;;;;23.77;16.05;;;;;;;;;;5064289;28;20066;-55
2022/05/10 08:28:57;;;;;;;19.88;15.70;;;;;;;;;;5064127;28;20123;-56
2022/05/10 08:31:23;;;;;;;19.08;14.50;;;;;;;;;;5063507;28;20035;-54
2022/05/10 08:33:49;;;;;;;23.30;15.02;;;;;;;;;;5060976;28;20025;-57
2022/05/10 08:36:15;;;;;;;22.27;15.70;;;;;;;;;;5062976;28;20841;-56
2022/05/10 08:38:43;;;;;;;19.90;14.80;;;;;;;;;;5063720;28;20067;-56
2022/05/10 08:41:20;;;;;;;24.13;14.80;;;;;;;;;;5061512;28;20075;-58
2022/05/10 08:43:51;;;;;;;17.58;12.65;;;;;;;;;;5062221;28;20033;-58
2022/05/10 08:46:21;;;;;;;19.08;12.43;;;;;;;;;;5061131;28;20029;-56
2022/05/10 08:48:51;;;;;;;23.98;14.40;;;;;;;;;;5062935;28;20040;-57
2022/05/10 08:51:17;;;;;;;22.02;13.25;;;;;;;;;;5062170;28;20490;-51
2022/05/10 08:53:43;;;;;;;16.67;12.27;;;;;;;;;;5061581;28;20498;-55
2022/05/10 08:56:14;;;;;;;15.68;12.00;;;;;;;;;;5063336;28;20067;-57
2022/05/10 08:58:43;;;;;;;20.63;13.32;;;;;;;;;;5059431;28;20108;-57
2022/05/10 09:01:12;;;;;;;14.63;11.15;;;;;;;;;;5062567;28;20036;-56
2022/05/10 09:03:59;;;;;;;13.00;10.40;;;;;;;;;;5063621;28;20063;-57
2022/05/10 09:06:37;;;;;;;13.88;11.23;;;;;;;;;;5062936;28;20626;-56
2022/05/10 09:09:03;;;;;;;16.48;11.75;;;;;;;;;;5061381;28;20055;-58
2022/05/10 09:11:34;;;;;;;23.50;11.63;;;;;;;;;;5061063;28;20399;-57
2022/05/10 09:14:00;;;;;;;15.68;10.88;;;;;;;;;;5061604;28;20071;-57
2022/05/10 09:16:26;;;;;;;14.93;10.55;;;;;;;;;;5060702;28;20752;-57
2022/05/10 09:18:53;;;;;;;16.02;10.60;;;;;;;;;;5059377;28;20052;-58
2022/05/10 09:21:23;;;;;;;14.98;9.30;;;;;;;;;;5060628;28;20028;-57
2022/05/10 09:24:08;;;;;;;13.60;9.80;;;;;;;;;;5060488;28;20036;-55
2022/05/10 09:26:44;;;;;;;18.27;9.50;;;;;;;;;;5061456;28;20135;-56
2022/05/10 09:29:10;;;;;;;19.25;10.32;;;;;;;;;;5059957;28;20082;-55
2022/05/10 09:37:16;;;;;;;15.27;8.93;;;;;;;;;;5063498;28;20047;-56
2022/05/10 09:39:54;;;;;;;18.08;8.90;;;;;;;;;;5061073;28;20032;-56
2022/05/10 09:42:35;;;;;;;10.85;8.57;;;;;;;;;;5060580;28;20082;-57
2022/05/10 09:45:04;;;;;;;12.45;8.35;;;;;;;;;;5061979;28;20060;-58
2022/05/10 09:47:31;;;;;;;14.65;7.97;;;;;;;;;;5059524;28;20998;-55
2022/05/10 09:50:17;;;;;;;11.38;7.53;;;;;;;;;;5061157;28;20056;-57
2022/05/10 09:52:44;;;;;;;13.40;8.02;;;;;;;;;;5060686;28;20572;-58
2022/05/10 09:55:16;;;;;;;13.98;7.20;;;;;;;;;;5060499;28;20025;-57
2022/05/10 09:57:43;;;;;;;12.20;7.50;;;;;;;;;;5060601;28;20083;-57
2022/05/10 10:00:13;;;;;;;13.32;6.47;;;;;;;;;;5059452;28;20041;-57
2022/05/10 10:02:40;;;;;;;12.05;6.65;;;;;;;;;;5059971;28;20040;-55
2022/05/10 10:05:21;;;;;;;8.98;6.63;;;;;;;;;;5060764;28;20032;-55
2022/05/10 10:07:51;;;;;;;13.20;7.78;;;;;;;;;;5060297;28;20064;-57
2022/05/10 10:10:20;;;;;;;10.75;6.72;;;;;;;;;;5061601;28;20115;-57
2022/05/10 10:12:47;;;;;;;12.77;6.88;;;;;;;;;;5060527;28;20043;-56
2022/05/10 10:15:22;;;;;;;12.02;6.60;;;;;;;;;;5060623;28;20032;-58
2022/05/10 10:17:59;;;;;;;12.20;6.40;;;;;;;;;;5059854;28;20016;-57
2022/05/10 10:20:37;;;;;;;19.45;6.68;;;;;;;;;;5059787;28;20043;-57
2022/05/10 10:23:08;;;;;;;15.77;6.35;;;;;;;;;;5058245;28;20036;-56
2022/05/10 10:25:44;;;;;;;15.32;6.55;;;;;;;;;;5060052;28;20101;-57
2022/05/10 10:28:16;;;;;;;11.50;5.93;;;;;;;;;;5058852;28;20097;-56
2022/05/10 10:31:02;;;;;;;16.25;6.47;;;;;;;;;;5061945;28;20032;-57
2022/05/10 10:33:29;;;;;;;12.57;6.57;;;;;;;;;;5059316;28;20068;-56
2022/05/10 10:35:59;;;;;;;8.70;5.65;;;;;;;;;;5058269;28;20457;-57
2022/05/10 10:38:29;;;;;;;13.02;5.88;;;;;;;;;;5059494;28;20506;-56
2022/05/10 10:41:04;;;;;;;10.73;5.63;;;;;;;;;;5062177;28;20039;-56
2022/05/10 10:43:41;;;;;;;14.18;5.68;;;;;;;;;;5058555;28;20160;-57
2022/05/10 10:46:16;;;;;;;12.63;6.20;;;;;;;;;;5061346;28;20811;-57
2022/05/10 10:48:49;;;;;;;16.50;6.20;;;;;;;;;;5058955;28;20050;-55
2022/05/10 10:51:16;;;;;;;10.82;6.15;;;;;;;;;;5060640;28;20033;-54
2022/05/10 10:53:44;;;;;;;11.75;5.93;;;;;;;;;;5060731;28;20029;-57
2022/05/10 10:56:35;;;;;;;13.55;6.28;;;;;;;;;;5059411;28;20032;-55
2022/05/10 10:59:14;;;;;;;16.45;6.07;;;;;;;;;;5061369;28;20143;-55
2022/05/10 11:01:49;;;;;;;10.35;6.40;;;;;;;;;;5058298;28;20028;-54
2022/05/10 11:04:43;;;;;;;9.60;5.15;;;;;;;;;;5059731;28;20021;-57
2022/05/10 11:07:32;;;;;;;12.07;5.88;;;;;;;;;;5054282;28;20232;-57
2022/05/10 11:10:07;;;;;;;11.20;6.00;;;;;;;;;;5055513;28;20050;-57
2022/05/10 11:12:52;;;;;;;10.90;5.50;;;;;;;;;;5057894;28;20032;-56
2022/05/10 11:15:37;;;;;;;12.15;5.95;;;;;;;;;;5058972;28;20820;-57
2022/05/10 11:18:06;;;;;;;8.95;5.38;;;;;;;;;;5058739;28;20034;-55
2022/05/10 11:20:47;;;;;;;9.70;5.55;;;;;;;;;;5059366;28;20034;-58
2022/05/10 11:23:20;;;;;;;11.85;5.90;;;;;;;;;;5059956;28;20031;-57
2022/05/10 11:25:46;;;;;;;8.60;5.47;;;;;;;;;;5059523;28;20558;-57
2022/05/10 11:28:18;;;;;;;11.10;6.75;;;;;;;;;;5058951;28;20487;-54
2022/05/10 11:30:44;;;;;;;10.23;5.90;;;;;;;;;;5061910;28;20071;-57
2022/05/10 11:33:17;;;;;;;9.23;6.00;;;;;;;;;;5060304;28;20051;-57
2022/05/10 11:35:44;;;;;;;8.88;5.07;;;;;;;;;;5058715;28;20094;-57
2022/05/10 11:38:13;;;;;;;11.98;6.30;;;;;;;;;;5057977;28;20479;-57
2022/05/10 11:40:58;;;;;;;11.00;5.72;;;;;;;;;;5060162;28;20025;-57
2022/05/10 11:43:27;;;;;;;9.02;5.78;;;;;;;;;;5059434;28;20024;-57
2022/05/10 11:45:54;;;;;;;11.52;6.28;;;;;;;;;;5062523;28;20024;-58
2022/05/10 11:48:22;;;;;;;16.10;6.78;;;;;;;;;;5063810;28;20087;-57
2022/05/10 11:54:04;;;;;;;11.80;6.78;;;;;;;;;;5058356;28;20128;-57
2022/05/10 11:56:34;;;;;;;10.43;6.43;;;;;;;;;;5061335;28;20033;-57
2022/05/10 11:59:12;;;;;;;8.98;6.10;;;;;;;;;;5061146;28;20157;-57
2022/05/10 12:01:57;;;;;;;11.27;6.28;;;;;;;;;;5062500;28;20040;-58
2022/05/10 12:04:29;;;;;;;8.82;5.60;;;;;;;;;;5062648;28;20474;-57
2022/05/10 12:06:57;;;;;;;16.25;5.85;;;;;;;;;;5062474;28;20100;-56
2022/05/10 12:09:41;;;;;;;12.38;6.78;;;;;;;;;;5061364;28;20064;-56
2022/05/10 12:12:08;;;;;;;10.82;6.25;;;;;;;;;;5064288;28;20032;-57
2022/05/10 12:24:00;;;;;;;10.15;5.70;;;;;;;;;;5062907;28;20812;-56
2022/05/10 12:26:38;;;;;;;13.45;6.57;;;;;;;;;;5049820;28;20047;-56
2022/05/10 12:29:23;;;;;;;10.32;6.55;;;;;;;;;;5061411;28;20090;-55
2022/05/10 12:31:56;;;;;;;11.35;5.70;;;;;;;;;;5061774;28;20032;-55
2022/05/10 12:34:56;;;;;;;10.10;6.18;;;;;;;;;;5064055;28;20048;-53
2022/05/10 12:37:36;;;;;;;10.10;6.00;;;;;;;;;;5059612;28;20040;-56
2022/05/10 12:40:11;;;;;;;12.45;5.68;;;;;;;;;;5063386;28;20475;-55
2022/05/10 12:42:46;;;;;;;10.68;5.90;;;;;;;;;;5062557;28;20036;-54
2022/05/10 12:45:15;;;;;;;14.48;5.85;;;;;;;;;;5061979;28;20695;-55
2022/05/10 12:47:51;;;;;;;16.70;5.88;;;;;;;;;;5062482;28;20099;-55
2022/05/10 12:50:22;;;;;;;12.70;6.50;;;;;;;;;;5062444;28;20189;-56
2022/05/10 12:52:48;;;;;;;13.25;6.28;;;;;;;;;;5061190;28;20082;-54
2022/05/10 12:55:17;;;;;;;15.02;5.75;;;;;;;;;;5061293;28;20032;-55
2022/05/10 12:58:02;;;;;;;15.88;6.13;;;;;;;;;;5063003;28;20119;-57
2022/05/10 13:00:43;;;;;;;18.50;5.85;;;;;;;;;;5062896;28;20467;-55
2022/05/10 13:03:21;;;;;;;12.75;5.78;;;;;;;;;;5062565;28;20522;-51
2022/05/10 13:06:10;;;;;;;17.75;7.00;;;;;;;;;;5063317;28;20082;-55
2022/05/10 13:08:45;;;;;;;12.00;6.45;;;;;;;;;;5062280;28;20044;-56
2022/05/10 13:11:13;;;;;;;11.80;6.20;;;;;;;;;;5061848;28;20093;-56
2022/05/10 13:13:39;;;;;;;17.55;6.13;;;;;;;;;;5060500;28;20035;-56
2022/05/10 13:16:05;;;;;;;12.77;6.05;;;;;;;;;;5061972;28;20392;-55
2022/05/10 13:18:32;;;;;;;10.80;6.00;;;;;;;;;;5061089;28;20031;-56
2022/05/10 13:20:59;;;;;;;7.15;5.57;;;;;;;;;;5061158;28;20368;-56
2022/05/10 13:23:27;;;;;;;10.18;6.10;;;;;;;;;;5061769;28;20036;-57
2022/05/10 13:25:53;;;;;;;12.73;6.70;;;;;;;;;;5061662;28;20438;-55
2022/05/10 13:28:19;;;;;;;10.13;6.03;;;;;;;;;;5059740;28;20028;-56
2022/05/10 13:30:47;;;;;;;13.93;6.30;;;;;;;;;;5061683;28;20089;-56
2022/05/10 13:33:33;;;;;;;9.65;5.75;;;;;;;;;;5062376;28;20115;-56
2022/05/10 13:36:02;;;;;;;10.23;6.47;;;;;;;;;;5061969;28;20036;-56
2022/05/10 13:38:31;;;;;;;12.55;6.40;;;;;;;;;;5060383;28;20028;-55
2022/05/10 13:40:59;;;;;;;8.27;5.55;;;;;;;;;;5061907;28;20056;-54
2022/05/10 13:43:36;;;;;;;15.40;6.22;;;;;;;;;;5062115;28;20075;-51
2022/05/10 13:46:04;;;;;;;13.30;6.47;;;;;;;;;;5061121;28;20025;-56
2022/05/10 13:48:35;;;;;;;10.05;5.75;;;;;;;;;;5059274;28;20029;-57
2022/05/10 13:51:09;;;;;;;11.68;7.10;;;;;;;;;;5060841;28;20108;-55
2022/05/10 13:53:36;;;;;;;14.25;6.60;;;;;;;;;;5060751;28;20147;-56
2022/05/10 13:56:03;;;;;;;9.30;5.35;;;;;;;;;;5061503;28;20021;-56
2022/05/10 13:58:31;;;;;;;9.40;5.85;;;;;;;;;;5060048;28;20046;-56
2022/05/10 14:00:57;;;;;;;11.80;6.43;;;;;;;;;;5060838;28;20841;-57
2022/05/10 14:03:23;;;;;;;11.48;6.05;;;;;;;;;;5061826;28;20207;-57
2022/05/10 14:05:49;;;;;;;9.40;5.20;;;;;;;;;;5061625;28;20557;-56
2022/05/10 14:08:18;;;;;;;14.52;5.85;;;;;;;;;;5060505;28;20071;-55
2022/05/10 14:10:45;;;;;;;8.57;5.57;;;;;;;;;;5056846;28;20406;-57
2022/05/10 14:13:19;;;;;;;7.82;5.40;;;;;;;;;;5061347;28;20386;-54
2022/05/10 14:15:46;;;;;;;8.95;5.63;;;;;;;;;;5058879;28;20024;-55
2022/05/10 14:18:34;;;;;;;9.35;5.90;;;;;;;;;;5061297;28;20429;-57
2022/05/10 14:21:04;;;;;;;9.90;5.18;;;;;;;;;;5061431;28;20107;-56
2022/05/10 14:23:34;;;;;;;10.07;5.15;;;;;;;;;;5059910;28;20021;-55
2022/05/10 14:26:02;;;;;;;9.00;5.10;;;;;;;;;;5062141;28;20032;-56
2022/05/10 14:28:34;;;;;;;10.20;6.18;;;;;;;;;;5060218;28;20028;-56
2022/05/10 14:31:29;;;;;;;7.97;5.15;;;;;;;;;;5059545;28;20025;-56
2022/05/10 14:33:56;;;;;;;12.68;5.82;;;;;;;;;;5055247;28;20044;-54
2022/05/10 14:36:36;;;;;;;10.07;5.65;;;;;;;;;;5062425;28;20033;-55
2022/05/10 14:39:04;;;;;;;9.63;5.50;;;;;;;;;;5060624;28;20048;-56
2022/05/10 14:41:32;;;;;;;9.27;5.80;;;;;;;;;;5060657;28;20045;-56
2022/05/10 14:43:59;;;;;;;12.10;6.05;;;;;;;;;;5059431;28;20028;-56
2022/05/10 14:46:26;;;;;;;10.65;6.13;;;;;;;;;;5059396;28;20111;-55
2022/05/10 14:48:57;;;;;;;12.57;5.70;;;;;;;;;;5060422;28;20044;-57
2022/05/10 14:51:34;;;;;;;13.00;6.93;;;;;;;;;;5059783;28;20036;-55
2022/05/10 14:54:00;;;;;;;11.00;6.18;;;;;;;;;;5062187;28;20032;-54
2022/05/10 14:56:32;;;;;;;11.43;5.93;;;;;;;;;;5060977;28;20463;-56
2022/05/10 14:59:09;;;;;;;15.05;6.45;;;;;;;;;;5060641;28;20115;-56
2022/05/10 15:01:37;;;;;;;10.23;5.32;;;;;;;;;;5062619;28;20189;-56
2022/05/10 15:04:19;;;;;;;12.65;6.35;;;;;;;;;;5060603;28;20497;-56
2022/05/10 15:06:45;;;;;;;13.25;6.13;;;;;;;;;;5059826;28;20037;-56